createdAt,value
2022-09-26T00:01:32.979Z,27.97
2022-09-26T00:04:02.919Z,27.87
2022-09-26T00:06:30.310Z,26.80
2022-09-26T00:09:00.822Z,27.40
2022-09-26T00:11:31.331Z,28.53
2022-09-26T00:14:01.328Z,28.87
2022-09-26T00:16:28.548Z,27.40
2022-09-26T00:18:57.056Z,27.20
2022-09-26T00:21:24.917Z,27.90
2022-09-26T00:23:52.118Z,27.63
2022-09-26T00:26:21.196Z,30.07
2022-09-26T00:28:48.581Z,27.80
2022-09-26T00:31:19.690Z,26.27
2022-09-26T00:33:47.118Z,25.43
2022-09-26T00:36:14.045Z,27.90
2022-09-26T00:38:40.953Z,29.07
2022-09-26T00:41:08.886Z,28.70
2022-09-26T00:43:41.809Z,29.77
2022-09-26T00:46:32.852Z,27.23
2022-09-26T00:49:14.289Z,27.20
2022-09-26T00:51:46.289Z,28.53
2022-09-26T00:54:19.134Z,28.87
2022-09-26T00:56:49.701Z,26.33
2022-09-26T00:59:25.299Z,27.87
2022-09-26T01:01:55.175Z,25.37
2022-09-26T01:04:25.771Z,26.80
2022-09-26T01:06:52.731Z,27.90
2022-09-26T01:09:21.144Z,28.17
2022-09-26T01:11:48.139Z,30.93
2022-09-26T01:14:15.789Z,29.47
2022-09-26T01:16:47.511Z,30.07
2022-09-26T01:19:37.492Z,29.20
2022-09-26T01:22:59.779Z,31.03
2022-09-26T01:26:14.142Z,29.13
2022-09-26T01:28:59.322Z,30.50
2022-09-26T01:32:04.953Z,28.87
2022-09-26T01:34:58.276Z,32.80
2022-09-26T01:37:37.727Z,35.60
2022-09-26T01:40:16.060Z,34.23
2022-09-26T01:42:52.058Z,34.93
2022-09-26T01:45:23.091Z,35.70
2022-09-26T01:48:08.323Z,33.03
2022-09-26T01:50:43.933Z,33.07
2022-09-26T01:53:38.633Z,35.33
2022-09-26T01:56:14.708Z,34.50
2022-09-26T02:01:43.415Z,34.50
2022-09-26T02:04:17.883Z,32.80
2022-09-26T02:07:00.625Z,33.60
2022-09-26T02:09:38.083Z,33.83
2022-09-26T02:12:07.192Z,33.00
2022-09-26T02:14:41.836Z,32.97
2022-09-26T02:17:13.047Z,32.40
2022-09-26T02:19:58.284Z,33.00
2022-09-26T02:22:29.545Z,36.10
2022-09-26T02:24:56.368Z,31.57
2022-09-26T02:27:24.739Z,36.63
2022-09-26T02:29:51.680Z,32.33
2022-09-26T02:32:40.502Z,35.67
2022-09-26T02:35:30.151Z,34.47
2022-09-26T02:37:57.233Z,33.93
2022-09-26T02:40:32.841Z,35.10
2022-09-26T02:43:39.431Z,33.60
2022-09-26T02:46:27.381Z,34.50
2022-09-26T02:49:10.373Z,35.00
2022-09-26T02:51:49.840Z,35.37
2022-09-26T02:54:22.507Z,32.87
2022-09-26T02:57:40.457Z,32.03
2022-09-26T03:00:25.591Z,27.60
2022-09-26T03:03:17.192Z,30.57
2022-09-26T03:05:46.304Z,31.23
2022-09-26T03:08:28.511Z,31.23
2022-09-26T03:10:59.037Z,32.60
2022-09-26T03:13:28.054Z,31.40
2022-09-26T03:15:58.687Z,31.27
2022-09-26T03:18:31.714Z,32.03
2022-09-26T03:20:59.901Z,33.67
2022-09-26T03:23:30.386Z,29.07
2022-09-26T03:26:19.006Z,30.90
2022-09-26T03:28:46.282Z,31.03
2022-09-26T03:31:13.214Z,28.87
2022-09-26T03:33:40.540Z,32.23
2022-09-26T03:36:09.701Z,31.37
2022-09-26T03:38:39.629Z,30.40
2022-09-26T03:41:07.516Z,33.23
2022-09-26T03:43:34.411Z,34.63
2022-09-26T03:46:06.391Z,32.77
2022-09-26T03:48:34.203Z,31.00
2022-09-26T03:51:09.076Z,32.60
2022-09-26T03:53:37.945Z,32.07
2022-09-26T03:56:15.111Z,33.73
2022-09-26T03:58:43.600Z,32.63
2022-09-26T04:01:17.007Z,31.80
2022-09-26T04:03:50.318Z,33.30
2022-09-26T04:06:20.826Z,31.47
2022-09-26T04:08:50.089Z,32.47
2022-09-26T04:11:20.284Z,34.80
2022-09-26T04:13:52.902Z,33.30
2022-09-26T04:16:22.850Z,33.60
2022-09-26T04:18:55.361Z,31.00
2022-09-26T04:21:22.874Z,32.33
2022-09-26T04:23:50.344Z,32.73
2022-09-26T04:26:23.220Z,33.97
2022-09-26T04:28:54.833Z,32.10
2022-09-26T04:31:30.858Z,31.57
2022-09-26T04:33:57.962Z,32.47
2022-09-26T04:36:31.304Z,30.20
2022-09-26T04:39:07.188Z,30.33
2022-09-26T04:41:34.468Z,31.37
2022-09-26T04:44:24.670Z,35.03
2022-09-26T04:46:49.526Z,34.43
2022-09-26T04:49:16.547Z,33.60
2022-09-26T04:51:43.487Z,34.43
2022-09-26T04:54:13.538Z,36.43
2022-09-26T04:56:40.591Z,32.27
2022-09-26T04:59:07.453Z,35.07
2022-09-26T05:01:34.431Z,36.73
2022-09-26T05:04:01.877Z,36.20
2022-09-26T05:06:28.729Z,35.17
2022-09-26T05:08:55.822Z,35.80
2022-09-26T05:11:22.985Z,35.57
2022-09-26T05:13:53.534Z,35.43
2022-09-26T05:16:21.272Z,33.43
2022-09-26T05:18:52.116Z,38.30
2022-09-26T05:21:18.990Z,34.30
2022-09-26T05:24:04.328Z,32.53
2022-09-26T05:26:37.461Z,31.33
2022-09-26T05:29:08.530Z,31.23
2022-09-26T05:31:38.593Z,31.27
2022-09-26T05:34:20.538Z,32.23
2022-09-26T05:36:47.795Z,29.97
2022-09-26T05:39:45.338Z,32.50
2022-09-26T05:42:12.423Z,29.03
2022-09-26T05:44:39.863Z,30.03
2022-09-26T05:47:08.613Z,28.40
2022-09-26T05:49:36.072Z,29.27
2022-09-26T05:52:04.027Z,28.97
2022-09-26T05:54:32.053Z,33.73
2022-09-26T05:56:59.113Z,31.93
2022-09-26T05:59:25.929Z,29.57
2022-09-26T06:01:52.896Z,30.00
2022-09-26T06:04:20.200Z,31.93
2022-09-26T06:06:58.988Z,29.47
2022-09-26T06:09:25.884Z,29.50
2022-09-26T06:11:52.984Z,32.17
2022-09-26T06:17:04.526Z,31.73
2022-09-26T06:19:31.358Z,35.07
2022-09-26T06:21:58.125Z,34.03
2022-09-26T06:24:24.970Z,31.47
2022-09-26T06:26:54.941Z,33.83
2022-09-26T06:29:21.746Z,35.37
2022-09-26T06:31:48.703Z,33.53
2022-09-26T06:34:15.591Z,33.67
2022-09-26T06:36:42.753Z,33.97
2022-09-26T06:39:10.205Z,37.13
2022-09-26T06:41:37.044Z,37.13
2022-09-26T06:44:04.258Z,35.73
2022-09-26T06:46:31.526Z,36.27
2022-09-26T06:48:58.365Z,33.43
2022-09-26T06:51:25.194Z,37.93
2022-09-26T06:53:55.042Z,42.60
2022-09-26T06:56:21.969Z,36.77
2022-09-26T06:58:51.939Z,37.40
2022-09-26T07:01:19.082Z,38.37
2022-09-26T07:03:46.273Z,35.47
2022-09-26T07:06:16.211Z,35.17
2022-09-26T07:09:01.393Z,32.83
2022-09-26T07:11:56.205Z,36.13
2022-09-26T07:14:17.927Z,37.23
2022-09-26T07:16:54.415Z,36.40
2022-09-26T07:19:28.659Z,36.37
2022-09-26T07:21:55.588Z,37.53
2022-09-26T07:24:22.388Z,38.43
2022-09-26T07:26:49.844Z,41.83
2022-09-26T07:29:16.678Z,41.40
2022-09-26T07:31:43.622Z,39.60
2022-09-26T07:34:14.581Z,36.03
2022-09-26T07:36:48.520Z,38.47
2022-09-26T07:39:15.544Z,35.47
2022-09-26T07:41:45.843Z,36.77
2022-09-26T07:47:19.045Z,33.83
2022-09-26T07:50:04.456Z,36.33
2022-09-26T07:52:32.759Z,34.83
2022-09-26T07:55:00.000Z,39.73
2022-09-26T07:57:26.843Z,38.77
2022-09-26T07:59:54.428Z,38.00
2022-09-26T08:02:29.155Z,38.67
2022-09-26T08:05:00.752Z,34.47
2022-09-26T08:07:27.986Z,33.07
2022-09-26T08:09:55.297Z,32.77
2022-09-26T08:12:27.182Z,32.67
2022-09-26T08:14:54.149Z,32.30
2022-09-26T08:17:21.350Z,34.13
2022-09-26T08:19:48.343Z,32.40
2022-09-26T08:22:15.148Z,32.70
2022-09-26T08:24:44.342Z,33.40
2022-09-26T08:27:11.196Z,32.10
2022-09-26T08:29:37.962Z,33.43
2022-09-26T08:32:04.833Z,32.97
2022-09-26T08:34:32.167Z,32.43
2022-09-26T08:36:59.137Z,34.63
2022-09-26T08:39:33.258Z,33.33
2022-09-26T08:42:23.889Z,33.47
2022-09-26T08:45:26.218Z,35.77
2022-09-26T08:48:22.166Z,33.87
2022-09-26T08:50:57.211Z,36.17
2022-09-26T08:53:36.993Z,34.93
2022-09-26T08:56:08.339Z,38.87
2022-09-26T08:58:43.993Z,40.43
2022-09-26T09:01:26.549Z,41.93
2022-09-26T09:04:19.034Z,38.43
2022-09-26T09:06:48.198Z,40.17
2022-09-26T09:09:16.858Z,37.13
2022-09-26T09:11:52.754Z,35.37
2022-09-26T09:15:20.565Z,34.80
2022-09-26T09:18:13.734Z,33.23
2022-09-26T09:20:59.521Z,32.17
2022-09-26T09:24:10.163Z,32.33
2022-09-26T09:30:39.731Z,29.33
2022-09-26T09:33:18.993Z,34.83
2022-09-26T09:36:15.031Z,28.20
2022-09-26T09:38:45.976Z,31.20
2022-09-26T09:41:21.168Z,29.53
2022-09-26T09:43:56.607Z,25.33
2022-09-26T09:46:29.134Z,23.77
2022-09-26T09:49:02.442Z,29.07
2022-09-26T09:51:51.544Z,26.87
2022-09-26T09:54:21.404Z,23.97
2022-09-26T09:56:58.272Z,23.60
2022-09-26T09:59:54.009Z,25.20
2022-09-26T10:02:47.165Z,23.03
2022-09-26T10:05:33.675Z,25.53
2022-09-26T10:08:00.956Z,22.17
2022-09-26T10:10:56.404Z,20.17
2022-09-26T10:13:27.011Z,22.20
2022-09-26T10:16:15.390Z,21.60
2022-09-26T10:19:03.640Z,19.67
2022-09-26T10:21:39.556Z,17.03
2022-09-26T10:24:22.236Z,16.67
2022-09-26T10:26:50.278Z,16.97
2022-09-26T10:32:17.758Z,18.57
2022-09-26T10:35:04.410Z,16.63
2022-09-26T10:37:31.476Z,17.80
2022-09-26T10:40:17.909Z,18.97
2022-09-26T10:42:47.597Z,19.10
2022-09-26T10:45:16.057Z,16.17
2022-09-26T10:47:46.204Z,14.73
2022-09-26T10:50:25.022Z,16.80
2022-09-26T10:53:02.030Z,16.77
2022-09-26T10:55:40.271Z,18.50
2022-09-26T10:58:15.404Z,18.77
2022-09-26T11:00:46.412Z,16.37
2022-09-26T11:03:20.068Z,16.70
2022-09-26T11:05:57.701Z,17.52
2022-09-26T11:08:37.438Z,14.18
2022-09-26T11:11:14.373Z,13.80
2022-09-26T11:14:10.846Z,16.17
2022-09-26T11:16:53.966Z,13.90
2022-09-26T11:19:54.665Z,13.35
2022-09-26T11:22:34.652Z,10.95
2022-09-26T11:25:17.316Z,11.70
2022-09-26T11:28:07.173Z,12.20
2022-09-26T11:30:48.353Z,11.07
2022-09-26T11:33:18.870Z,12.23
2022-09-26T11:36:18.032Z,12.23
2022-09-26T11:38:55.561Z,8.80
2022-09-26T11:41:44.184Z,13.65
2022-09-26T11:44:20.044Z,12.30
2022-09-26T11:47:05.737Z,10.45
2022-09-26T11:49:41.852Z,9.68
2022-09-26T11:52:20.659Z,10.27
2022-09-26T11:55:08.354Z,10.73
2022-09-26T11:57:43.961Z,10.48
2022-09-26T12:00:29.107Z,12.70
2022-09-26T12:03:02.168Z,11.55
2022-09-26T12:06:01.365Z,11.73
2022-09-26T12:08:48.547Z,13.23
2022-09-26T12:11:21.356Z,12.75
2022-09-26T12:14:02.085Z,13.90
2022-09-26T12:17:04.043Z,13.05
2022-09-26T12:19:47.232Z,15.35
2022-09-26T12:22:29.808Z,14.95
2022-09-26T12:25:50.127Z,13.75
2022-09-26T12:28:20.394Z,12.07
2022-09-26T12:31:14.030Z,14.13
2022-09-26T12:34:18.117Z,12.88
2022-09-26T12:36:51.220Z,14.70
2022-09-26T12:39:40.722Z,12.68
2022-09-26T12:42:27.263Z,13.60
2022-09-26T12:45:03.199Z,11.50
2022-09-26T12:48:04.848Z,13.20
2022-09-26T12:50:34.387Z,11.90
2022-09-26T12:53:10.270Z,12.55
2022-09-26T12:55:49.170Z,10.23
2022-09-26T12:58:50.201Z,10.93
2022-09-26T13:01:28.831Z,11.82
2022-09-26T13:04:24.812Z,13.53
2022-09-26T13:07:17.723Z,12.67
2022-09-26T13:10:04.912Z,11.23
2022-09-26T13:12:56.183Z,12.03
2022-09-26T13:15:58.286Z,14.02
2022-09-26T13:18:43.542Z,11.77
2022-09-26T13:21:33.549Z,12.13
2022-09-26T13:24:13.408Z,10.27
2022-09-26T13:26:46.978Z,11.33
2022-09-26T13:29:20.863Z,9.90
2022-09-26T13:31:55.421Z,11.10
2022-09-26T13:34:40.219Z,9.40
2022-09-26T13:37:19.604Z,10.47
2022-09-26T13:40:20.400Z,9.30
2022-09-26T13:43:21.631Z,8.80
2022-09-26T13:46:00.482Z,8.03
2022-09-26T13:48:50.255Z,10.70
2022-09-26T13:51:41.980Z,8.13
2022-09-26T13:54:27.601Z,8.90
2022-09-26T13:56:56.011Z,7.87
2022-09-26T14:00:12.442Z,8.60
2022-09-26T14:02:39.576Z,10.17
2022-09-26T14:05:28.781Z,12.20
2022-09-26T14:08:14.413Z,10.47
2022-09-26T14:11:01.059Z,12.20
2022-09-26T14:13:36.892Z,10.77
2022-09-26T14:16:34.232Z,12.40
2022-09-26T14:19:16.157Z,12.53
2022-09-26T14:22:16.063Z,10.33
2022-09-26T14:24:44.001Z,10.00
2022-09-26T14:27:24.990Z,12.20
2022-09-26T14:30:23.714Z,9.53
2022-09-26T14:32:54.226Z,13.23
2022-09-26T14:35:28.564Z,13.67
2022-09-26T14:38:20.398Z,10.50
2022-09-26T14:40:58.486Z,9.90
2022-09-26T14:43:30.177Z,12.70
2022-09-26T14:46:05.813Z,13.27
2022-09-26T14:48:40.654Z,11.30
2022-09-26T14:51:25.224Z,9.77
2022-09-26T14:54:01.983Z,11.30
2022-09-26T14:56:32.790Z,11.37
2022-09-26T14:59:24.828Z,13.17
2022-09-26T15:02:14.547Z,10.63
2022-09-26T15:04:43.591Z,12.20
2022-09-26T15:07:25.026Z,9.67
2022-09-26T15:10:02.251Z,10.43
2022-09-26T15:12:44.279Z,11.47
2022-09-26T15:15:18.297Z,11.30
2022-09-26T15:17:56.454Z,11.47
2022-09-26T15:20:25.384Z,11.27
2022-09-26T15:23:11.272Z,13.10
2022-09-26T15:25:38.752Z,15.03
2022-09-26T15:28:05.799Z,11.50
2022-09-26T15:30:37.350Z,11.87
2022-09-26T15:33:04.809Z,10.87
2022-09-26T15:35:32.742Z,14.27
2022-09-26T15:38:02.941Z,10.77
2022-09-26T15:40:31.987Z,11.37
2022-09-26T15:43:09.612Z,13.83
2022-09-26T15:45:46.450Z,12.53
2022-09-26T15:48:19.382Z,12.17
2022-09-26T15:50:53.177Z,10.70
2022-09-26T15:53:34.911Z,13.73
2022-09-26T15:56:13.095Z,11.53
2022-09-26T15:58:40.038Z,10.73
2022-09-26T16:01:15.040Z,12.90
2022-09-26T16:04:02.327Z,10.60
2022-09-26T16:06:37.703Z,12.80
2022-09-26T16:09:25.903Z,13.60
2022-09-26T16:11:53.368Z,14.07
2022-09-26T16:14:34.372Z,13.63
2022-09-26T16:17:14.020Z,15.27
2022-09-26T16:19:50.499Z,19.47
2022-09-26T16:22:37.127Z,14.10
2022-09-26T16:25:27.740Z,12.50
2022-09-26T16:27:58.499Z,16.63
2022-09-26T16:30:28.343Z,14.43
2022-09-26T16:33:13.567Z,13.10
2022-09-26T16:35:48.592Z,12.93
2022-09-26T16:38:21.220Z,15.20
2022-09-26T16:40:58.095Z,14.37
2022-09-26T16:43:29.439Z,13.80
2022-09-26T16:46:01.374Z,13.00
2022-09-26T16:48:40.821Z,16.17
2022-09-26T16:51:13.825Z,12.87
2022-09-26T16:53:44.322Z,13.80
2022-09-26T16:56:17.603Z,14.17
2022-09-26T16:59:06.872Z,12.50
2022-09-26T17:01:52.807Z,13.63
2022-09-26T17:04:33.067Z,11.97
2022-09-26T17:07:09.725Z,12.20
2022-09-26T17:09:45.809Z,11.47
2022-09-26T17:12:21.874Z,12.70
2022-09-26T17:14:55.197Z,12.73
2022-09-26T17:17:30.330Z,12.00
2022-09-26T17:19:59.651Z,11.70
2022-09-26T17:22:27.511Z,10.80
2022-09-26T17:24:55.038Z,13.00
2022-09-26T17:27:28.223Z,10.93
2022-09-26T17:30:00.324Z,10.10
2022-09-26T17:32:35.833Z,11.00
2022-09-26T17:35:31.220Z,8.83
2022-09-26T17:37:58.613Z,9.73
2022-09-26T17:40:28.243Z,10.93
2022-09-26T17:42:57.766Z,12.03
2022-09-26T17:45:30.858Z,11.63
2022-09-26T17:48:10.484Z,10.33
2022-09-26T17:50:38.873Z,11.37
2022-09-26T17:53:08.001Z,11.00
2022-09-26T17:55:37.865Z,11.33
2022-09-26T17:58:10.619Z,9.67
2022-09-26T18:00:40.507Z,10.60
2022-09-26T18:03:13.585Z,10.60
2022-09-26T18:05:44.751Z,10.97
2022-09-26T18:08:37.547Z,12.47
2022-09-26T18:11:17.153Z,12.87
2022-09-26T18:13:52.538Z,13.77
2022-09-26T18:16:19.854Z,12.80
2022-09-26T18:18:48.019Z,11.00
2022-09-26T18:21:18.913Z,9.63
2022-09-26T18:23:57.027Z,8.93
2022-09-26T18:26:33.483Z,9.53
2022-09-26T18:29:07.566Z,6.93
2022-09-26T18:31:39.426Z,7.73
2022-09-26T18:34:11.533Z,7.70
2022-09-26T18:36:39.308Z,6.17
2022-09-26T18:39:11.179Z,4.37
2022-09-26T18:41:40.042Z,6.17
2022-09-26T18:44:11.306Z,5.20
2022-09-26T18:46:41.073Z,4.20
2022-09-26T18:49:12.821Z,5.47
2022-09-26T18:51:43.735Z,5.80
2022-09-26T18:54:15.914Z,4.63
2022-09-26T18:57:01.807Z,4.10
2022-09-26T18:59:31.263Z,6.07
2022-09-26T19:02:00.001Z,4.37
2022-09-26T19:04:27.707Z,4.90
2022-09-26T19:07:05.541Z,6.13
2022-09-26T19:09:35.091Z,6.30
2022-09-26T19:12:03.339Z,7.03
2022-09-26T19:14:31.586Z,6.80
2022-09-26T19:16:59.330Z,8.20
2022-09-26T19:19:28.695Z,5.83
2022-09-26T19:21:57.913Z,8.77
2022-09-26T19:24:46.156Z,8.47
2022-09-26T19:27:23.655Z,13.40
2022-09-26T19:30:16.894Z,31.80
2022-09-26T19:32:46.654Z,12.07
2022-09-26T19:35:34.085Z,10.50
2022-09-26T19:38:03.316Z,12.63
2022-09-26T19:40:30.337Z,10.17
2022-09-26T19:42:57.971Z,9.40
2022-09-26T19:45:26.039Z,10.50
2022-09-26T19:47:56.028Z,11.20
2022-09-26T19:50:26.571Z,10.37
2022-09-26T19:52:56.281Z,10.37
2022-09-26T19:55:25.700Z,10.93
2022-09-26T19:58:12.140Z,10.50
2022-09-26T20:00:43.510Z,11.13
2022-09-26T20:03:29.607Z,10.97
2022-09-26T20:05:56.435Z,11.33
2022-09-26T20:08:25.626Z,11.47
2022-09-26T20:10:54.369Z,13.90
2022-09-26T20:13:21.515Z,11.83
2022-09-26T20:15:49.250Z,10.97
2022-09-26T20:18:24.073Z,13.30
2022-09-26T20:20:55.693Z,12.00
2022-09-26T20:23:25.898Z,13.10
2022-09-26T20:25:55.926Z,12.67
2022-09-26T20:28:22.869Z,12.30
2022-09-26T20:30:52.528Z,12.97
2022-09-26T20:33:23.822Z,12.97
2022-09-26T20:36:03.229Z,15.43
2022-09-26T20:38:33.725Z,13.90
2022-09-26T20:41:16.049Z,15.10
2022-09-26T20:43:46.543Z,13.80
2022-09-26T20:46:14.185Z,12.87
2022-09-26T20:48:43.084Z,13.30
2022-09-26T20:51:20.889Z,15.30
2022-09-26T20:53:47.713Z,13.23
2022-09-26T20:56:17.001Z,13.80
2022-09-26T20:58:44.571Z,13.23
2022-09-26T21:01:16.298Z,14.37
2022-09-26T21:03:55.273Z,13.77
2022-09-26T21:06:31.915Z,14.13
2022-09-26T21:08:59.071Z,14.07
2022-09-26T21:11:31.862Z,14.87
2022-09-26T21:13:58.738Z,14.77
2022-09-26T21:16:25.935Z,15.57
2022-09-26T21:18:53.113Z,15.40
2022-09-26T21:21:25.866Z,14.70
2022-09-26T21:23:53.462Z,14.20
2022-09-26T21:26:28.489Z,15.13
2022-09-26T21:28:56.373Z,14.07
2022-09-26T21:31:30.478Z,16.13
2022-09-26T21:33:59.215Z,14.30
2022-09-26T21:36:35.678Z,15.00
2022-09-26T21:39:02.744Z,15.57
2022-09-26T21:41:30.195Z,15.47
2022-09-26T21:44:10.776Z,14.60
2022-09-26T21:46:37.636Z,17.13
2022-09-26T21:49:04.462Z,15.83
2022-09-26T21:51:31.776Z,14.87
2022-09-26T21:54:11.673Z,15.93
2022-09-26T21:56:50.015Z,15.97
2022-09-26T21:59:19.962Z,15.53
2022-09-26T22:01:47.193Z,17.10
2022-09-26T22:04:14.547Z,14.73
2022-09-26T22:06:42.241Z,15.63
2022-09-26T22:09:09.605Z,16.77
2022-09-26T22:11:37.686Z,17.33
2022-09-26T22:14:05.445Z,18.43
2022-09-26T22:16:32.484Z,16.30
2022-09-26T22:19:00.312Z,17.07
2022-09-26T22:21:27.897Z,17.00
2022-09-26T22:23:54.894Z,18.23
2022-09-26T22:26:21.773Z,17.67
2022-09-26T22:28:49.305Z,18.57
2022-09-26T22:31:22.789Z,17.40
2022-09-26T22:33:49.845Z,16.87
2022-09-26T22:36:16.814Z,16.60
2022-09-26T22:38:43.938Z,15.97
2022-09-26T22:41:11.468Z,16.77
2022-09-26T22:43:38.322Z,16.03
2022-09-26T22:46:07.873Z,16.30
2022-09-26T22:48:46.190Z,16.70
2022-09-26T22:51:14.623Z,17.57
2022-09-26T22:53:42.902Z,16.00
2022-09-26T22:56:12.766Z,16.20
2022-09-26T22:58:43.126Z,16.57
2022-09-26T23:01:14.375Z,14.97
2022-09-26T23:03:42.061Z,16.70
2022-09-26T23:06:09.804Z,16.43
2022-09-26T23:08:37.053Z,16.40
2022-09-26T23:11:04.860Z,16.70
2022-09-26T23:13:33.210Z,17.23
2022-09-26T23:18:50.845Z,21.33
2022-09-26T23:21:22.801Z,22.53
2022-09-26T23:23:57.079Z,20.23
2022-09-26T23:26:27.602Z,25.73
2022-09-26T23:28:56.574Z,23.80
2022-09-26T23:31:25.194Z,24.70
2022-09-26T23:33:52.843Z,28.23
2022-09-26T23:36:19.904Z,27.23
2022-09-26T23:38:47.252Z,24.97
2022-09-26T23:41:14.558Z,29.83
2022-09-26T23:43:41.908Z,28.30
2022-09-26T23:46:09.605Z,27.07
2022-09-26T23:48:37.282Z,30.53
2022-09-26T23:51:04.266Z,31.43
2022-09-26T23:53:31.291Z,33.43
2022-09-26T23:56:09.990Z,34.10
2022-09-26T23:58:37.920Z,32.10
